DRI-NNSC Building Weather observations

Data are for 10 minute period ending at time listed.
 Day   Time   Solar   Ave.   Ave.  Ave.  Vector  Max.   Baro.   Total    
  of    of     Rad.   Air    Rel.  Wind   Wind   Wind  Press.  Precip.   
Year   Day            Temp.  Hum.  Speed  Dir.   Gust                    
2014   (PST)  Kw/m2    F      %     mph   deg.    mph    mb.     in.     
-------------------------------------------------------------------------
 328   14:00   0.37   51.5    20    4.1   158      8   859.1    0.00 
 328   14:10   0.36   50.6    21    4.2   137      6   859.1    0.00 
 328   14:20   0.34   51.6    21    4.1   148      9   859.0    0.00 
 328   14:30   0.31   52.2    21    3.1   142      6   858.9    0.00 
 328   14:40   0.29   51.0    22    3.8   129      7   859.0    0.00 
 328   14:50   0.26   51.9    21    2.5   130      5   859.0    0.00 
 328   15:00   0.24   52.8    20    1.9   161      6   859.1    0.00 
 328   15:10   0.22   52.0    21    2.2   106      4   859.2    0.00 
 328   15:20   0.20   51.8    21    2.1   109      4   859.2    0.00 
 328   15:30   0.16   51.1    20    3.1   112      6   859.3    0.00 
 328   15:40   0.14   51.1    20    2.5    98      4   859.2    0.00 
 328   15:50   0.12   51.7    20    2.8   126      5   859.1    0.00 
 328   16:00   0.09   50.7    21    2.7    86      5   859.1    0.00 
 328   16:10   0.06   49.7    22    2.0    69      3   859.0    0.00 
 328   16:20   0.04   49.3    23    1.5    69      3   859.0    0.00 
 328   16:30   0.02   48.4    24    1.8    60      3   858.9    0.00 
 328   16:40   0.01   47.6    24    3.0    60      4   858.9    0.00 
 328   16:50   0.00   47.0    26    3.4    84      6   858.8    0.00 
 328   17:00   0.00   46.9    26    3.5    86      5   859.0    0.00 
 328   17:10   0.00   46.1    26    3.5    71      5   859.0    0.00 
 328   17:20   0.00   45.7    27    3.5    73      5   859.0    0.00 
 328   17:30   0.00   45.5    27    3.5   106      6   859.0    0.00 
 328   17:40   0.00   45.3    28    4.1   108      5   859.1    0.00 
 328   17:50   0.00   45.1    28    3.4    74      4   859.2    0.00 
 328   18:00   0.00   44.9    28    3.6    62      4   859.2    0.00 
 328   18:10   0.00   44.7    28    3.6    67      4   859.3    0.00 
 328   18:20   0.00   44.4    28    3.3    59      4   859.4    0.00 
 328   18:30   0.00   44.3    28    3.5    50      5   859.6    0.00 
 328   18:40   0.00   43.9    29    3.7    54      5   859.6    0.00 
 328   18:50   0.00   43.8    29    3.4    48      4   859.7    0.00 
 328   19:00   0.00   43.5    29    3.0    67      4   859.8    0.00 
 328   19:10   0.00   43.3    29    3.3    73      5   859.8    0.00 
 328   19:20   0.00   43.0    29    3.5    46      4   859.8    0.00 
 328   19:30   0.00   43.0    29    3.6    59      4   859.9    0.00 
 328   19:40   0.00   42.7    30    3.8    61      5   860.0    0.00 
 328   19:50   0.00   42.5    30    4.1    64      5   860.0    0.00 
 328   20:00   0.00   42.6    30    3.4    66      4   859.9    0.00 
 328   20:10   0.00   42.6    31    2.9    67      3   859.9    0.00 
 328   20:20   0.00   42.4    31    3.4    64      5   859.9    0.00 
 328   20:30   0.00   41.7    32    3.6    69      4   859.9    0.00 
 328   20:40   0.00   40.7    33    4.5    69      6   859.8    0.00 
 328   20:50   0.00   40.5    34    4.3    64      5   859.9    0.00 
 328   21:00   0.00   40.6    35    3.1    53      5   860.0    0.00 
 328   21:10   0.00   40.7    35    2.4    37      3   860.1    0.00 
 328   21:20   0.00   40.9    35    1.4    44      3   860.1    0.00 
 328   21:30   0.00   41.2    34    1.9    57      3   860.1    0.00 
 328   21:40   0.00   41.1    34    2.8    67      3   860.1    0.00 
 328   21:50   0.00   40.7    35    2.7    49      3   860.1    0.00 
 328   22:00   0.00   40.7    35    2.9    59      4   860.2    0.00 
 328   22:10   0.00   40.0    36    2.9    62      4   860.3    0.00 
 328   22:20   0.00   38.7    38    3.9    58      5   860.5    0.00 
 328   22:30   0.00   38.3    39    3.4    70      4   860.5    0.00 
 328   22:40   0.00   38.0    39    2.6    62      4   860.6    0.00 
 328   22:50   0.00   38.5    39    2.4    76      3   860.7    0.00 
 328   23:00   0.00   38.3    38    3.3    54      4   860.7    0.00 
 328   23:10   0.00   38.3    38    4.2    54      5   860.8    0.00 
 328   23:20   0.00   37.8    39    3.9    34      5   860.8    0.00 
 328   23:30   0.00   38.0    39    3.5    54      4   860.9    0.00 
 328   23:40   0.00   37.8    39    3.8    65      5   861.0    0.00 
 328   23:50   0.00   37.5    40    3.4    76      5   861.0    0.00 
 329    0:00   0.00   36.9    41    1.9    22      3   861.2    0.00 
 329    0:10   0.00   36.3    42    2.1   326      3   861.2    0.00 
 329    0:20   0.00   36.9    41    0.9   319      3   861.1    0.00 
 329    0:30   0.00   38.0    39    1.8    70      3   861.3    0.00 
 329    0:40   0.00   37.4    40    0.8   151      2   861.2    0.00 
 329    0:50   0.00   36.7    41    1.9   156      3   861.1    0.00 
 329    1:00   0.00   36.0    42    2.1   142      4   861.1    0.00 
 329    1:10   0.00   35.5    43    0.8   119      2   861.1    0.00 
 329    1:20   0.00   35.6    43    0.8   227      2   861.0    0.00 
 329    1:30   0.00   35.2    43    0.5   194      2   861.0    0.00 
 329    1:40   0.00   35.3    43    0.2   268      1   861.0    0.00 
 329    1:50   0.00   35.9    42    0.5   328      2   860.9    0.00 
 329    2:00   0.00   35.1    43    0.1   195      2   861.0    0.00 
 329    2:10   0.00   35.0    43    1.5   332      3   861.1    0.00 
 329    2:20   0.00   36.1    42    3.1   324      5   861.1    0.00 
 329    2:30   0.00   37.0    40    4.5   326      6   861.1    0.00 
 329    2:40   0.00   36.8    41    4.6    66      6   861.2    0.00 
 329    2:50   0.00   35.1    44    3.0    88      6   861.2    0.00 
 329    3:00   0.00   35.6    43    3.1    86      5   861.2    0.00 
 329    3:10   0.00   35.4    43    4.0    85      6   861.2    0.00 
 329    3:20   0.00   35.6    42    3.8    66      6   861.2    0.00 
 329    3:30   0.00   34.8    44    2.1   249      4   861.2    0.00 
 329    3:40   0.00   33.8    46    1.5   310      3   861.2    0.00 
 329    3:50   0.00   34.1    45    1.5   230      3   861.2    0.00 
 329    4:00   0.00   33.5    46    1.6   292      3   861.2    0.00 
 329    4:10   0.00   33.7    46    2.9   300      4   861.2    0.00 
 329    4:20   0.00   34.4    45    2.6   306      4   861.1    0.00 
 329    4:30   0.00   34.5    45    1.5   225      4   861.0    0.00 
 329    4:40   0.00   32.8    48    0.9    84      2   861.1    0.00 
 329    4:50   0.00   33.5    47    1.2   324      2   861.3    0.00 
 329    5:00   0.00   34.5    45    1.8   311      3   861.3    0.00 
 329    5:10   0.00   35.5    43    2.2   358      6   861.4    0.00 
 329    5:20   0.00   32.7    48    4.7    64      6   861.4    0.00 
 329    5:30   0.00   34.0    46    3.2    71      5   861.4    0.00 
 329    5:40   0.00   34.1    46    1.8    51      4   861.5    0.00 
 329    5:50   0.00   33.3    47    4.2    63      5   861.4    0.00 
 329    6:00   0.00   33.7    46    3.1    61      5   861.5    0.00 
 329    6:10   0.00   34.3    45    4.1    52      5   861.6    0.00 
 329    6:20   0.00   33.4    47    1.5    27      3   861.7    0.00 
 329    6:30   0.00   34.5    45    2.3    68      5   862.0    0.00 
 329    6:40   0.00   35.1    44    2.7    48      4   862.2    0.00 
 329    6:50   0.00   34.4    45    1.9    16      3   862.3    0.00 
 329    7:00   0.00   35.3    44    1.7   180      4   862.3    0.00 
 329    7:10   0.01   33.7    48    1.3   204      3   862.4    0.00 
 329    7:20   0.02   35.3    45    2.1   197      4   862.3    0.00 
 329    7:30   0.04   34.6    47    2.0   165      3   862.1    0.00 
 329    7:40   0.07   33.9    48    2.1   166      3   862.1    0.00 
 329    7:50   0.10   33.5    49    1.7   146      3   862.1    0.00 
 329    8:00   0.12   33.5    50    1.7   164      3   862.1    0.00 
 329    8:10   0.14   32.9    52    1.5   226      3   862.0    0.00 
 329    8:20   0.16   33.7    51    2.0   279      3   862.0    0.00 
 329    8:30   0.19   34.2    49    2.8   272      5   862.1    0.00 
 329    8:40   0.21   35.0    48    2.7   334      4   862.1    0.00 
 329    8:50   0.24   37.8    47    1.1   329      3   862.1    0.00 
 329    9:00   0.26   39.8    44    1.9    58      4   862.2    0.00 
 329    9:10   0.28   41.7    41    0.9   288      4   862.2    0.00 
 329    9:20   0.31   41.7    40    2.6   290      5   862.2    0.00 
 329    9:30   0.33   42.6    39    2.3   286      4   862.3    0.00 
 329    9:40   0.35   43.8    37    2.4   224      5   862.3    0.00 
 329    9:50   0.37   45.5    35    2.2   178      4   862.4    0.00 
 329   10:00   0.38   45.9    35    2.1   147      4   862.4    0.00 
 329   10:10   0.40   47.2    34    1.7   159      4   862.5    0.00 
 329   10:20   0.41   46.5    35    2.6   137      5   862.5    0.00 
 329   10:30   0.43   45.8    36    3.8   138      7   862.6    0.00 
 329   10:40   0.44   46.6    35    3.8   167      7   862.5    0.00 
 329   10:50   0.45   47.1    34    2.7   184      5   862.4    0.00 
 329   11:00   0.46   47.3    34    3.1   195      6   862.3    0.00 
 329   11:10   0.47   48.8    32    4.1   186      9   862.1    0.00 
 329   11:20   0.47   49.6    31    3.9   189      8   862.0    0.00 
 329   11:30   0.48   50.8    30    2.9   191      5   861.7    0.00 
 329   11:40   0.49   52.0    29    2.7   208      5   861.6    0.00 
 329   11:50   0.49   52.2    29    3.0   235      5   861.4    0.00 
 329   12:00   0.49   54.4    27    2.9   171      6   861.2    0.00 
 329   12:10   0.49   55.0    26    3.2   178      6   861.1    0.00 
 329   12:20   0.48   55.1    26    2.6   179      5   860.9    0.00 
 329   12:30   0.47   55.5    26    1.7   150      6   860.8    0.00 
 329   12:40   0.47   54.4    26    3.5   109      6   860.7    0.00 
 329   12:50   0.46   54.7    26    2.0   102      6   860.6    0.00 
 329   13:00   0.45   56.3    25    1.9   146      6   860.5    0.00 
 329   13:10   0.45   57.9    24    1.7   161      4   860.4    0.00 
 329   13:20   0.43   58.1    23    2.1   200      6   860.3    0.00 
 329   13:30   0.42   58.9    23    2.5   200      5   860.1    0.00 
 329   13:40   0.40   59.4    23    2.1   181      6   859.9    0.00 
 329   13:50   0.39   61.1    21    2.0   180      4   859.9    0.00 

Return to NNSC graphs page.


Western Regional Climate Center,wrcc@dri.edu